Time;durP1;ratioP1;P1;durP2;ratioP2;P2;SDS_P1;SDS_P2;PMS_P1;PMS_P2;Temp;Humidity;BMP_temperature;BMP_pressure;BME280_temperature;BME280_humidity;BME280_pressure;Samples;Min_cycle;Max_cycle;Signal;HPM_P1;HPM_P2
2023/05/16 00:02:06;;;;;;;15.85;9.45;;;15.40;99.90;;;;;;4999359;28;20045;-75
2023/05/16 00:04:33;;;;;;;11.60;7.28;;;15.30;99.90;;;;;;4999634;28;20124;-74
2023/05/16 00:07:01;;;;;;;10.15;6.57;;;15.30;99.90;;;;;;4999780;28;20042;-74
2023/05/16 00:09:28;;;;;;;11.38;6.20;;;15.30;99.90;;;;;;4997677;28;20039;-74
2023/05/16 00:11:55;;;;;;;11.68;6.63;;;15.30;99.90;;;;;;4999239;28;20109;-75
2023/05/16 00:14:25;;;;;;;10.18;6.00;;;15.20;99.90;;;;;;4999236;28;20053;-76
2023/05/16 00:16:57;;;;;;;10.80;6.38;;;15.20;99.90;;;;;;4998910;28;20446;-76
2023/05/16 00:19:25;;;;;;;11.40;5.40;;;15.30;99.90;;;;;;4997749;28;20053;-76
2023/05/16 00:21:52;;;;;;;9.55;5.28;;;15.30;99.90;;;;;;4973019;28;20569;-76
2023/05/16 00:24:20;;;;;;;11.82;6.07;;;15.30;99.90;;;;;;4997596;28;20455;-75
2023/05/16 00:26:47;;;;;;;10.05;5.75;;;15.30;99.90;;;;;;4997257;28;20486;-76
2023/05/16 00:29:15;;;;;;;10.18;6.07;;;15.30;99.90;;;;;;4998331;28;20676;-76
2023/05/16 00:31:42;;;;;;;9.98;5.50;;;15.20;99.90;;;;;;4997458;28;20043;-76
2023/05/16 00:34:11;;;;;;;9.93;6.03;;;15.30;99.90;;;;;;4999132;28;20116;-75
2023/05/16 00:36:39;;;;;;;8.93;5.78;;;15.30;99.90;;;;;;5001889;28;20070;-75
2023/05/16 00:39:06;;;;;;;9.50;5.88;;;15.30;99.90;;;;;;4999060;28;20088;-75
2023/05/16 00:41:34;;;;;;;12.77;5.72;;;15.30;99.90;;;;;;5008616;28;20034;-76
2023/05/16 00:44:02;;;;;;;11.45;5.57;;;15.30;99.90;;;;;;5001310;28;20112;-75
2023/05/16 00:46:29;;;;;;;9.73;5.43;;;15.30;99.90;;;;;;5001445;28;20042;-76
2023/05/16 00:48:57;;;;;;;9.18;4.53;;;15.30;99.90;;;;;;4982206;28;20050;-73
2023/05/16 00:51:25;;;;;;;9.68;4.75;;;15.30;99.90;;;;;;5001825;28;20125;-75
2023/05/16 00:53:54;;;;;;;7.43;4.65;;;15.30;99.90;;;;;;5001378;28;20406;-75
2023/05/16 00:56:22;;;;;;;8.43;4.38;;;15.30;99.90;;;;;;5001393;28;20042;-75
2023/05/16 00:58:50;;;;;;;8.18;4.55;;;15.40;99.90;;;;;;5001998;28;20062;-75
2023/05/16 01:01:20;;;;;;;9.02;5.25;;;15.40;99.90;;;;;;5001833;28;20062;-75
2023/05/16 01:03:48;;;;;;;10.90;5.88;;;15.30;99.90;;;;;;4984199;28;20042;-75
2023/05/16 01:06:15;;;;;;;11.63;6.28;;;15.30;99.90;;;;;;4984387;28;20454;-75
2023/05/16 01:08:44;;;;;;;12.90;6.70;;;15.20;99.90;;;;;;4990901;28;20137;-76
2023/05/16 01:11:18;;;;;;;12.02;7.00;;;15.20;99.90;;;;;;4999465;28;20434;-75
2023/05/16 01:14:12;;;;;;;10.48;6.55;;;15.20;99.90;;;;;;5025276;28;20058;-75
2023/05/16 01:16:47;;;;;;;10.90;6.82;;;15.20;99.90;;;;;;5000309;28;20076;-75
2023/05/16 01:19:47;;;;;;;11.95;7.15;;;15.20;99.90;;;;;;5000884;28;20048;-75
2023/05/16 01:22:20;;;;;;;12.27;6.95;;;15.20;99.90;;;;;;4962681;28;20067;-75
2023/05/16 01:25:02;;;;;;;12.30;7.25;;;15.20;99.90;;;;;;4962499;28;20038;-76
2023/05/16 01:27:33;;;;;;;13.10;7.30;;;15.10;99.90;;;;;;4977312;28;20050;-75
2023/05/16 01:30:01;;;;;;;12.95;6.93;;;15.10;99.90;;;;;;4977296;28;20118;-75
2023/05/16 01:32:28;;;;;;;10.15;6.57;;;15.10;99.90;;;;;;4978005;28;20051;-75
2023/05/16 01:34:55;;;;;;;10.27;7.25;;;15.10;99.90;;;;;;4978364;28;20063;-75
2023/05/16 01:37:30;;;;;;;11.73;7.65;;;15.10;99.90;;;;;;4962910;28;20470;-76
2023/05/16 01:40:06;;;;;;;12.88;7.15;;;15.10;99.90;;;;;;4978368;28;20038;-76
2023/05/16 01:42:42;;;;;;;9.63;5.80;;;15.10;99.90;;;;;;4978973;28;20039;-75
2023/05/16 01:45:15;;;;;;;9.40;5.47;;;15.10;99.90;;;;;;4962506;28;20055;-75
2023/05/16 01:47:47;;;;;;;8.30;5.18;;;15.20;99.90;;;;;;4998306;28;20053;-75
2023/05/16 01:50:17;;;;;;;9.95;5.88;;;15.20;99.90;;;;;;5023702;28;20077;-75
2023/05/16 01:52:50;;;;;;;9.43;5.05;;;15.20;99.90;;;;;;5000823;28;20046;-75
2023/05/16 01:55:24;;;;;;;9.35;6.50;;;15.20;99.90;;;;;;5000759;28;20129;-75
2023/05/16 01:57:54;;;;;;;10.80;6.00;;;15.20;99.90;;;;;;5000365;28;20057;-75
2023/05/16 02:00:22;;;;;;;11.68;6.30;;;15.20;99.90;;;;;;4998435;28;20088;-75
2023/05/16 02:02:49;;;;;;;9.40;6.20;;;15.20;99.90;;;;;;5000800;28;20490;-75
2023/05/16 02:05:17;;;;;;;10.35;5.90;;;15.20;99.90;;;;;;4999656;28;20077;-75
2023/05/16 02:07:45;;;;;;;12.27;6.70;;;15.20;99.90;;;;;;5000001;28;20509;-75
2023/05/16 02:10:13;;;;;;;12.10;7.65;;;15.20;99.90;;;;;;4983090;28;20046;-75
2023/05/16 02:12:41;;;;;;;12.45;7.75;;;15.20;99.90;;;;;;4983501;28;20043;-75
2023/05/16 02:15:11;;;;;;;14.13;8.18;;;15.20;99.90;;;;;;4983367;28;20061;-75
2023/05/16 02:17:39;;;;;;;15.32;8.38;;;15.30;99.90;;;;;;4982197;28;20047;-75
2023/05/16 02:20:09;;;;;;;10.40;7.57;;;15.20;99.90;;;;;;4981271;28;20056;-75
2023/05/16 02:22:38;;;;;;;12.90;7.55;;;15.30;99.90;;;;;;4982708;28;20577;-74
2023/05/16 02:25:06;;;;;;;11.43;7.38;;;15.20;99.90;;;;;;4980084;28;20073;-75
2023/05/16 02:27:34;;;;;;;12.88;7.35;;;15.30;99.90;;;;;;5007045;28;20046;-75
2023/05/16 02:30:02;;;;;;;10.95;7.70;;;15.20;99.90;;;;;;4999083;28;20044;-75
2023/05/16 02:32:32;;;;;;;12.32;7.95;;;15.20;99.90;;;;;;4982509;28;20281;-75
2023/05/16 02:35:00;;;;;;;14.35;8.52;;;15.20;99.90;;;;;;4999884;28;20062;-74
2023/05/16 02:37:27;;;;;;;12.15;7.72;;;15.20;99.90;;;;;;5008068;28;20068;-75
2023/05/16 02:39:55;;;;;;;12.55;9.27;;;15.30;99.90;;;;;;5000544;28;20044;-75
2023/05/16 02:42:22;;;;;;;14.50;9.85;;;15.20;99.90;;;;;;4982216;28;20049;-74
2023/05/16 02:44:49;;;;;;;14.45;9.00;;;15.20;99.90;;;;;;4999068;28;20061;-74
2023/05/16 02:47:18;;;;;;;14.45;9.13;;;15.20;99.90;;;;;;4983478;28;20157;-74
2023/05/16 02:49:47;;;;;;;15.77;9.80;;;15.20;99.90;;;;;;4999481;28;20534;-75
2023/05/16 02:52:14;;;;;;;16.70;9.82;;;15.10;99.90;;;;;;4998809;28;20038;-75
2023/05/16 02:54:42;;;;;;;13.43;9.38;;;15.10;99.90;;;;;;4999412;28;20057;-76
2023/05/16 02:57:09;;;;;;;13.45;9.68;;;15.10;99.90;;;;;;4980733;28;20137;-75
2023/05/16 02:59:38;;;;;;;16.17;10.45;;;15.00;99.90;;;;;;5000145;28;20120;-75
2023/05/16 03:02:05;;;;;;;13.38;9.55;;;15.00;99.90;;;;;;4999883;28;20557;-75
2023/05/16 03:04:34;;;;;;;16.63;9.77;;;15.00;99.90;;;;;;5006424;28;20046;-75
2023/05/16 03:07:03;;;;;;;14.60;9.77;;;15.00;99.90;;;;;;4998481;28;20050;-75
2023/05/16 03:09:30;;;;;;;15.45;9.88;;;14.90;99.90;;;;;;4995274;28;20046;-75
2023/05/16 03:11:58;;;;;;;17.48;10.65;;;15.00;99.90;;;;;;4999279;28;20058;-75
2023/05/16 03:14:25;;;;;;;16.65;10.02;;;15.00;99.90;;;;;;4996974;28;20053;-75
2023/05/16 03:16:53;;;;;;;18.25;9.82;;;15.00;99.90;;;;;;5000689;28;20046;-75
2023/05/16 03:19:20;;;;;;;17.30;10.48;;;15.10;99.90;;;;;;4997977;28;20095;-75
2023/05/16 03:21:48;;;;;;;13.35;9.45;;;15.10;99.90;;;;;;4999227;28;20042;-76
2023/05/16 03:24:16;;;;;;;15.10;10.55;;;15.10;99.90;;;;;;5004538;28;20053;-76
2023/05/16 03:26:44;;;;;;;17.42;11.30;;;15.10;99.90;;;;;;5003506;28;20558;-76
2023/05/16 03:29:12;;;;;;;15.63;11.43;;;15.10;99.90;;;;;;5004225;28;20072;-75
2023/05/16 03:31:41;;;;;;;16.55;11.07;;;15.10;99.90;;;;;;5000373;28;20046;-75
2023/05/16 03:34:08;;;;;;;18.35;11.10;;;15.10;99.90;;;;;;4998318;28;20049;-75
2023/05/16 03:36:35;;;;;;;20.17;11.15;;;15.20;99.90;;;;;;5003218;28;20049;-75
2023/05/16 03:39:03;;;;;;;14.43;11.43;;;15.20;99.90;;;;;;4999381;28;20041;-75
2023/05/16 03:41:32;;;;;;;15.95;11.43;;;15.20;99.90;;;;;;4997154;28;20050;-75
2023/05/16 03:43:59;;;;;;;16.83;11.65;;;15.20;99.90;;;;;;5003254;28;20074;-76
2023/05/16 03:46:27;;;;;;;17.30;11.90;;;15.20;99.90;;;;;;5002415;28;20515;-75
2023/05/16 03:48:54;;;;;;;17.25;11.93;;;15.30;99.90;;;;;;4999018;28;20072;-75
2023/05/16 03:51:22;;;;;;;17.95;12.20;;;15.30;99.90;;;;;;4999325;28;20137;-75
2023/05/16 03:53:49;;;;;;;15.70;11.90;;;15.20;99.90;;;;;;4999541;28;20092;-76
2023/05/16 03:56:17;;;;;;;17.50;10.88;;;15.20;99.90;;;;;;4996419;28;20038;-76
2023/05/16 03:58:46;;;;;;;12.45;9.27;;;15.20;99.90;;;;;;4999405;28;20060;-75
2023/05/16 04:01:13;;;;;;;12.32;8.30;;;15.40;99.90;;;;;;4997997;28;20055;-76
2023/05/16 04:03:41;;;;;;;12.65;8.75;;;15.40;99.90;;;;;;4998490;28;20038;-75
2023/05/16 04:06:08;;;;;;;12.98;8.95;;;15.40;99.90;;;;;;4998141;28;20061;-75
2023/05/16 04:08:38;;;;;;;12.18;9.20;;;15.40;99.90;;;;;;4999318;28;20726;-75
2023/05/16 04:11:05;;;;;;;13.57;9.57;;;15.30;99.90;;;;;;5002562;28;20134;-75
2023/05/16 04:13:33;;;;;;;14.43;9.50;;;15.40;99.90;;;;;;5002603;28;20041;-74
2023/05/16 04:16:02;;;;;;;12.57;9.45;;;15.40;99.90;;;;;;5009099;28;20072;-75
2023/05/16 04:18:29;;;;;;;11.00;9.57;;;15.40;99.90;;;;;;5002974;28;20128;-75
2023/05/16 04:20:56;;;;;;;11.65;9.90;;;15.40;99.90;;;;;;5001233;28;20451;-74
2023/05/16 04:23:24;;;;;;;13.65;10.07;;;15.40;99.90;;;;;;4985145;28;20045;-75
2023/05/16 04:25:51;;;;;;;14.45;10.15;;;15.40;99.90;;;;;;5002192;28;20405;-75
2023/05/16 04:28:19;;;;;;;14.48;10.25;;;15.40;99.90;;;;;;5002065;28;20041;-75
2023/05/16 04:30:47;;;;;;;14.15;10.32;;;15.50;99.90;;;;;;5001737;28;20490;-75
2023/05/16 04:33:17;;;;;;;13.60;10.10;;;15.50;99.90;;;;;;5002081;28;20129;-74
2023/05/16 04:35:44;;;;;;;15.35;10.85;;;15.60;99.90;;;;;;5001839;28;20121;-74
2023/05/16 04:38:12;;;;;;;18.08;11.15;;;15.60;99.90;;;;;;5002384;28;20038;-75
2023/05/16 04:40:40;;;;;;;19.38;12.55;;;15.60;99.90;;;;;;5000456;28;20152;-75
2023/05/16 04:43:08;;;;;;;21.55;13.48;;;15.60;99.90;;;;;;5002103;28;20050;-74
2023/05/16 04:45:35;;;;;;;21.85;14.23;;;15.70;99.90;;;;;;5001287;28;20102;-75
2023/05/16 04:48:03;;;;;;;22.60;15.45;;;15.70;99.90;;;;;;5002534;28;20035;-74
2023/05/16 04:50:31;;;;;;;22.75;15.50;;;15.80;99.90;;;;;;5001342;28;20038;-76
2023/05/16 04:52:59;;;;;;;22.30;15.27;;;15.70;99.90;;;;;;5002489;28;20038;-75
2023/05/16 04:55:26;;;;;;;35.30;18.15;;;15.80;99.90;;;;;;4999628;28;20078;-73
2023/05/16 04:57:54;;;;;;;29.20;19.45;;;15.80;99.90;;;;;;5001366;28;20533;-75
2023/05/16 05:00:22;;;;;;;30.17;20.55;;;15.80;99.90;;;;;;4999948;28;20398;-74
2023/05/16 05:02:49;;;;;;;27.65;20.58;;;15.80;99.90;;;;;;5001825;28;20050;-74
2023/05/16 05:05:17;;;;;;;32.70;20.25;;;15.90;99.90;;;;;;5001211;28;20046;-75
2023/05/16 05:07:45;;;;;;;30.02;21.05;;;15.90;99.90;;;;;;5001119;28;20103;-75
2023/05/16 05:10:13;;;;;;;31.45;21.10;;;15.90;99.90;;;;;;5000747;28;20053;-75
2023/05/16 05:12:40;;;;;;;30.60;21.38;;;16.00;99.90;;;;;;5000560;28;20054;-76
2023/05/16 05:15:08;;;;;;;27.33;21.35;;;16.00;99.90;;;;;;5001175;28;20046;-75
2023/05/16 05:17:36;;;;;;;27.10;21.88;;;16.10;99.90;;;;;;5002034;28;20056;-75
2023/05/16 05:20:06;;;;;;;30.70;22.25;;;16.10;99.90;;;;;;4999190;28;20085;-75
2023/05/16 05:22:33;;;;;;;32.08;22.85;;;16.10;99.90;;;;;;5001962;28;20046;-76
2023/05/16 05:25:02;;;;;;;30.25;22.25;;;16.00;99.90;;;;;;5001950;28;20045;-75
2023/05/16 05:27:30;;;;;;;33.92;23.92;;;16.10;99.90;;;;;;5000962;28;20159;-74
2023/05/16 05:29:57;;;;;;;33.83;22.85;;;16.10;99.90;;;;;;5001194;28;20034;-75
2023/05/16 05:32:25;;;;;;;32.45;23.73;;;16.10;99.90;;;;;;5000516;28;20042;-75
2023/05/16 05:34:52;;;;;;;34.22;24.40;;;16.10;99.90;;;;;;5001884;28;20053;-75
2023/05/16 05:37:20;;;;;;;33.88;24.50;;;16.10;99.90;;;;;;4999371;28;20449;-75
2023/05/16 05:39:47;;;;;;;40.65;29.23;;;16.10;99.90;;;;;;4999666;28;20039;-75
2023/05/16 05:42:17;;;;;;;33.92;25.23;;;16.10;99.90;;;;;;4999661;28;20038;-76
2023/05/16 05:44:44;;;;;;;37.90;25.73;;;16.20;99.90;;;;;;5000388;28;20049;-75
2023/05/16 05:47:12;;;;;;;32.65;24.80;;;16.20;99.90;;;;;;4999077;28;20050;-74
2023/05/16 05:49:40;;;;;;;34.22;26.30;;;16.20;99.90;;;;;;5000692;28;20556;-75
2023/05/16 05:52:07;;;;;;;34.33;25.10;;;16.20;99.90;;;;;;4999754;28;20041;-76
2023/05/16 05:54:35;;;;;;;32.50;25.85;;;16.10;99.90;;;;;;4999927;28;20038;-73
2023/05/16 05:57:02;;;;;;;36.75;27.27;;;16.10;99.90;;;;;;4999674;28;20056;-75
2023/05/16 05:59:31;;;;;;;36.45;26.60;;;16.10;99.90;;;;;;5000169;28;20541;-75
2023/05/16 06:01:58;;;;;;;39.35;27.70;;;16.10;99.90;;;;;;5001201;28;20042;-75
2023/05/16 06:04:26;;;;;;;32.58;24.58;;;16.10;99.90;;;;;;5000111;28;20490;-75
2023/05/16 06:06:53;;;;;;;35.25;25.05;;;16.10;99.90;;;;;;5000357;28;20047;-75
2023/05/16 06:09:22;;;;;;;36.72;27.25;;;16.00;99.90;;;;;;4999567;28;20061;-74
2023/05/16 06:11:50;;;;;;;39.20;27.80;;;16.00;99.90;;;;;;5000839;28;20276;-75
2023/05/16 06:14:18;;;;;;;36.83;27.48;;;15.90;99.90;;;;;;4999963;28;20508;-75
2023/05/16 06:16:46;;;;;;;38.03;27.85;;;15.90;99.90;;;;;;5001407;28;20057;-76
2023/05/16 06:19:15;;;;;;;39.88;29.40;;;15.90;99.90;;;;;;5000864;28;20038;-75
2023/05/16 06:21:42;;;;;;;40.60;28.90;;;15.80;99.90;;;;;;4999311;28;20156;-74
2023/05/16 06:24:11;;;;;;;41.42;29.42;;;15.80;99.90;;;;;;5000494;28;20061;-74
2023/05/16 06:26:38;;;;;;;41.83;31.33;;;15.80;99.90;;;;;;5000362;28;20045;-75
2023/05/16 06:29:06;;;;;;;46.47;33.60;;;15.80;99.90;;;;;;5024125;28;20047;-75
2023/05/16 06:31:33;;;;;;;46.47;32.10;;;15.80;99.90;;;;;;5019107;28;20050;-75
2023/05/16 06:34:02;;;;;;;45.30;34.15;;;15.80;99.90;;;;;;5002071;28;20042;-75
2023/05/16 06:36:29;;;;;;;47.72;33.42;;;15.70;99.90;;;;;;4999417;28;20042;-75
2023/05/16 06:38:57;;;;;;;53.45;35.97;;;15.60;99.90;;;;;;4998410;28;20097;-75
2023/05/16 06:41:25;;;;;;;54.05;36.70;;;15.60;99.90;;;;;;4999467;28;20050;-75
2023/05/16 06:43:52;;;;;;;53.30;34.05;;;15.50;99.90;;;;;;4998814;28;20043;-76
2023/05/16 06:46:20;;;;;;;108.38;67.82;;;15.60;99.90;;;;;;4998375;28;20034;-75
2023/05/16 06:48:49;;;;;;;74.25;50.13;;;15.60;99.90;;;;;;4999579;28;20046;-76
2023/05/16 06:51:18;;;;;;;57.80;40.40;;;15.60;99.90;;;;;;4998959;28;20050;-75
2023/05/16 06:53:45;;;;;;;62.80;41.67;;;15.60;99.90;;;;;;4998986;28;20133;-75
2023/05/16 06:56:13;;;;;;;54.80;39.05;;;15.70;99.90;;;;;;4989554;28;20069;-77
2023/05/16 06:58:40;;;;;;;56.92;40.45;;;15.80;99.90;;;;;;4999732;28;20050;-75
2023/05/16 07:01:07;;;;;;;66.57;47.17;;;15.80;99.90;;;;;;4998897;28;20514;-76
2023/05/16 07:03:45;;;;;;;66.78;43.85;;;16.00;99.90;;;;;;5092173;27;20390;-76
2023/05/16 07:06:12;;;;;;;47.67;37.45;;;16.40;99.90;;;;;;5065593;28;20045;-77
2023/05/16 07:08:40;;;;;;;43.85;37.10;;;16.60;99.90;;;;;;5066877;28;20041;-79
2023/05/16 07:11:10;;;;;;;41.47;31.35;;;16.80;99.90;;;;;;5081189;28;20043;-81
2023/05/16 07:13:37;;;;;;;41.97;30.08;;;16.70;99.90;;;;;;5090071;28;20044;-80
2023/05/16 07:16:06;;;;;;;43.28;32.25;;;16.90;99.90;;;;;;5064977;28;20453;-83
2023/05/16 07:18:34;;;;;;;36.10;30.30;;;17.10;99.90;;;;;;5065450;28;20071;-86
2023/05/16 07:21:03;;;;;;;30.65;27.13;;;17.60;99.90;;;;;;5067547;28;20361;-80
2023/05/16 07:23:30;;;;;;;23.75;21.15;;;17.90;99.90;;;;;;5066005;28;20063;-73
2023/05/16 07:25:58;;;;;;;20.67;17.45;;;18.40;99.90;;;;;;5065229;28;20118;-74
2023/05/16 07:28:26;;;;;;;19.27;16.15;;;19.00;99.90;;;;;;5063114;28;20099;-74
2023/05/16 07:30:57;;;;;;;17.98;13.88;;;19.60;99.90;;;;;;5069473;28;20033;-78
2023/05/16 07:33:26;;;;;;;17.95;12.93;;;19.80;99.90;;;;;;5064243;28;20167;-73
2023/05/16 07:35:53;;;;;;;16.63;13.40;;;20.10;99.90;;;;;;5063067;28;20053;-73
2023/05/16 07:38:23;;;;;;;16.17;12.35;;;20.40;99.90;;;;;;5064241;28;20047;-74
2023/05/16 07:40:51;;;;;;;15.65;11.63;;;20.40;99.90;;;;;;5064221;28;20043;-73
2023/05/16 07:43:18;;;;;;;18.35;12.65;;;20.40;99.90;;;;;;5064453;28;20048;-74
2023/05/16 07:45:45;;;;;;;17.92;12.75;;;20.40;99.90;;;;;;5064146;28;20040;-73
2023/05/16 07:48:13;;;;;;;14.02;11.07;;;20.80;99.90;;;;;;5064426;28;20048;-73
2023/05/16 07:50:41;;;;;;;14.05;10.52;;;21.00;99.90;;;;;;5064783;28;20384;-73
2023/05/16 07:53:08;;;;;;;15.98;11.68;;;20.90;99.90;;;;;;5062632;28;20106;-74
2023/05/16 07:55:37;;;;;;;13.20;10.15;;;20.90;99.90;;;;;;5065727;28;20036;-73
2023/05/16 07:58:05;;;;;;;12.98;11.25;;;20.90;99.90;;;;;;5064356;28;20068;-72
2023/05/16 08:00:33;;;;;;;13.77;11.25;;;21.00;99.90;;;;;;5064338;28;20299;-75
2023/05/16 08:03:00;;;;;;;20.33;13.73;;;21.10;99.90;;;;;;5064723;28;20098;-73
2023/05/16 08:05:28;;;;;;;16.88;10.95;;;21.30;99.90;;;;;;5065296;28;20047;-74
2023/05/16 08:07:55;;;;;;;15.20;10.57;;;21.50;99.90;;;;;;5067244;28;20078;-73
2023/05/16 08:10:23;;;;;;;17.25;10.75;;;21.70;99.90;;;;;;5066629;28;20044;-74
2023/05/16 08:12:52;;;;;;;14.27;10.15;;;21.80;99.90;;;;;;5083968;28;21481;-73
2023/05/16 08:15:20;;;;;;;12.10;10.55;;;22.10;99.90;;;;;;5048136;28;20043;-73
2023/05/16 08:17:47;;;;;;;14.52;11.18;;;21.80;99.90;;;;;;5050010;28;20041;-72
2023/05/16 08:20:15;;;;;;;17.80;11.10;;;21.60;99.90;;;;;;5049737;28;20094;-73
2023/05/16 08:22:42;;;;;;;14.45;10.50;;;21.40;99.90;;;;;;5050407;28;20112;-74
2023/05/16 08:25:10;;;;;;;15.32;10.73;;;21.30;99.90;;;;;;5045397;28;20070;-74
2023/05/16 08:27:38;;;;;;;15.77;11.00;;;21.60;99.90;;;;;;5048795;28;20040;-75
2023/05/16 08:30:08;;;;;;;15.05;11.60;;;21.60;99.90;;;;;;5047357;28;20048;-73
2023/05/16 08:32:36;;;;;;;18.67;14.23;;;21.40;99.90;;;;;;5050217;28;20041;-73
2023/05/16 08:35:03;;;;;;;16.33;11.52;;;21.40;99.90;;;;;;5049674;28;20061;-73
2023/05/16 08:37:31;;;;;;;18.95;11.90;;;21.50;99.90;;;;;;5050219;28;20041;-73
2023/05/16 08:39:59;;;;;;;15.32;11.85;;;21.40;99.90;;;;;;5047755;28;20132;-73
2023/05/16 08:42:27;;;;;;;18.00;12.80;;;21.00;99.90;;;;;;5050122;28;20419;-73
2023/05/16 08:44:54;;;;;;;15.35;11.13;;;20.90;99.90;;;;;;5049900;28;20423;-73
2023/05/16 08:47:26;;;;;;;18.27;12.77;;;20.80;99.90;;;;;;5049084;28;20033;-73
2023/05/16 08:49:58;;;;;;;17.27;12.82;;;20.70;99.90;;;;;;5048470;28;20134;-72
2023/05/16 08:52:28;;;;;;;18.92;13.52;;;20.90;99.90;;;;;;5048065;28;20071;-73
2023/05/16 08:54:59;;;;;;;15.60;11.50;;;21.10;99.90;;;;;;5049317;28;20044;-72
2023/05/16 08:57:27;;;;;;;18.60;12.95;;;21.80;99.90;;;;;;5046690;28;20488;-72
2023/05/16 08:59:57;;;;;;;24.63;14.00;;;21.80;99.90;;;;;;5048341;28;20069;-74
2023/05/16 09:02:26;;;;;;;16.73;10.77;;;22.10;99.90;;;;;;5048375;28;20095;-73
2023/05/16 09:04:57;;;;;;;18.42;9.55;;;22.20;1.00;;;;;;5049115;28;20057;-74
2023/05/16 09:07:24;;;;;;;17.45;9.52;;;22.20;1.00;;;;;;5062722;28;20064;-73
2023/05/16 09:09:52;;;;;;;22.15;11.23;;;22.50;1.00;;;;;;5048727;28;20044;-74
2023/05/16 09:12:21;;;;;;;18.02;10.35;;;22.60;1.00;;;;;;5046731;28;20051;-73
2023/05/16 09:14:48;;;;;;;17.20;9.60;;;22.60;1.00;;;;;;5050606;28;20120;-74
2023/05/16 09:17:16;;;;;;;16.48;9.23;;;22.60;29.00;;;;;;5048631;28;20068;-73
2023/05/16 09:19:47;;;;;;;15.55;8.20;;;22.50;36.90;;;;;;5049858;28;20567;-74
2023/05/16 09:22:16;;;;;;;16.10;9.38;;;22.80;1.00;;;;;;5048363;28;20048;-73
2023/05/16 09:24:44;;;;;;;12.00;8.80;;;23.00;99.90;;;;;;5048757;28;20199;-74
2023/05/16 09:27:13;;;;;;;19.92;10.63;;;23.00;1.00;;;;;;5048967;28;20405;-73
2023/05/16 09:29:41;;;;;;;16.85;9.68;;;22.90;99.90;;;;;;5049784;28;20136;-74
2023/05/16 09:32:13;;;;;;;13.50;9.90;;;22.80;99.90;;;;;;5050930;28;20071;-74
2023/05/16 09:34:47;;;;;;;15.90;8.75;;;23.00;99.90;;;;;;5049393;28;20045;-74
2023/05/16 09:37:14;;;;;;;12.38;8.63;;;23.00;99.90;;;;;;5050703;28;20045;-74
2023/05/16 09:39:46;;;;;;;15.38;9.30;;;23.20;1.00;;;;;;5048805;28;20493;-75
2023/05/16 09:42:14;;;;;;;17.05;8.98;;;23.40;1.00;;;;;;5048988;28;20508;-75
2023/05/16 09:44:45;;;;;;;18.63;8.65;;;23.60;1.00;;;;;;5047794;28;20041;-74
2023/05/16 09:47:15;;;;;;;18.40;10.27;;;24.00;99.90;;;;;;5048720;28;20072;-74
2023/05/16 09:49:44;;;;;;;18.30;8.57;;;24.40;99.90;;;;;;5049052;28;20091;-73
2023/05/16 09:52:11;;;;;;;13.48;8.05;;;25.00;99.90;;;;;;5048708;28;20037;-74
2023/05/16 09:54:39;;;;;;;15.20;7.68;;;25.30;1.00;;;;;;5047797;28;20048;-73
2023/05/16 09:57:07;;;;;;;15.15;8.10;;;25.80;23.40;;;;;;5046843;28;20047;-73
2023/05/16 09:59:37;;;;;;;17.50;8.05;;;25.80;1.00;;;;;;5045964;28;20453;-74
2023/05/16 10:02:06;;;;;;;14.60;7.18;;;25.70;99.90;;;;;;5044998;28;20425;-73
2023/05/16 10:04:34;;;;;;;16.48;7.50;;;25.30;1.00;;;;;;5063362;28;20044;-74
2023/05/16 10:07:05;;;;;;;14.77;8.70;;;24.80;1.00;;;;;;5048093;28;20049;-74
2023/05/16 10:09:33;;;;;;;15.38;7.35;;;24.80;1.00;;;;;;5047155;28;20052;-74
2023/05/16 10:12:03;;;;;;;15.55;8.45;;;24.80;1.00;;;;;;5048109;28;20052;-73
2023/05/16 10:14:34;;;;;;;20.30;7.97;;;24.90;1.00;;;;;;5045658;28;20053;-74
2023/05/16 10:17:03;;;;;;;16.75;7.65;;;25.10;1.00;;;;;;5047843;28;20094;-74
2023/05/16 10:19:34;;;;;;;15.02;7.60;;;25.40;1.00;;;;;;5045514;28;20075;-74
2023/05/16 10:22:07;;;;;;;15.18;7.68;;;25.40;1.00;;;;;;5066232;28;20899;-73
2023/05/16 10:24:40;;;;;;;17.38;7.60;;;25.40;1.00;;;;;;5066027;28;20641;-73
2023/05/16 10:27:08;;;;;;;19.58;8.43;;;25.10;1.00;;;;;;5050171;28;20090;-74
2023/05/16 10:29:35;;;;;;;16.35;9.07;;;24.70;1.00;;;;;;5067624;28;20492;-73
2023/05/16 10:32:05;;;;;;;19.45;9.77;;;24.60;1.00;;;;;;5068612;28;20036;-75
2023/05/16 10:34:33;;;;;;;16.88;7.15;;;24.40;1.00;;;;;;5066332;28;20499;-74
2023/05/16 10:37:00;;;;;;;21.05;8.07;;;24.00;1.00;;;;;;5065841;28;20033;-74
2023/05/16 10:39:30;;;;;;;23.27;11.10;;;23.30;1.00;;;;;;5068756;28;20036;-74
2023/05/16 10:41:58;;;;;;;18.65;9.45;;;23.20;1.00;;;;;;5068073;28;20051;-74
2023/05/16 10:44:26;;;;;;;22.13;9.77;;;23.20;1.00;;;;;;5082735;28;20116;-73
2023/05/16 10:46:53;;;;;;;17.23;10.18;;;23.20;1.00;;;;;;5068002;28;20055;-75
2023/05/16 10:49:22;;;;;;;18.23;9.93;;;23.40;1.00;;;;;;5066697;28;20049;-74
2023/05/16 10:52:08;;;;;;;19.80;10.60;;;23.30;1.00;;;;;;5067861;28;20041;-75
2023/05/16 10:54:39;;;;;;;18.85;10.30;;;23.20;1.00;;;;;;5066467;28;20040;-73
2023/05/16 10:57:09;;;;;;;19.95;10.43;;;23.20;1.00;;;;;;5069561;28;20047;-74
2023/05/16 10:59:45;;;;;;;15.00;10.13;;;23.40;99.90;;;;;;5068414;28;20396;-76
2023/05/16 11:02:27;;;;;;;18.33;9.88;;;23.60;1.00;;;;;;5066934;28;20094;-74
2023/05/16 11:04:58;;;;;;;21.52;10.25;;;23.80;1.00;;;;;;5048968;28;20052;-75
2023/05/16 11:07:30;;;;;;;16.85;9.55;;;24.00;99.90;;;;;;5067297;28;20106;-76
2023/05/16 11:10:07;;;;;;;21.25;10.85;;;24.10;1.00;;;;;;5049264;28;20056;-76
2023/05/16 11:12:53;;;;;;;16.63;9.82;;;24.40;1.00;;;;;;5068447;28;20072;-75
2023/05/16 11:15:24;;;;;;;13.30;8.85;;;24.90;99.90;;;;;;5068771;28;20393;-75
2023/05/16 11:17:51;;;;;;;18.30;9.70;;;24.90;53.10;;;;;;5069033;28;20040;-76
2023/05/16 11:20:30;;;;;;;14.90;9.00;;;24.90;99.90;;;;;;5068200;28;20098;-76
2023/05/16 11:23:25;;;;;;;15.77;8.82;;;24.90;24.30;;;;;;5067718;28;20397;-77
2023/05/16 11:25:56;;;;;;;17.80;8.90;;;25.10;1.00;;;;;;5044080;28;20074;-76
2023/05/16 11:28:25;;;;;;;22.73;11.13;;;25.10;1.00;;;;;;5085846;28;20043;-76
2023/05/16 11:30:55;;;;;;;18.13;10.20;;;25.00;1.00;;;;;;5087686;28;20040;-75
2023/05/16 11:33:23;;;;;;;18.77;10.77;;;25.10;1.00;;;;;;5086877;28;20048;-76
2023/05/16 11:36:01;;;;;;;16.70;9.27;;;25.10;1.00;;;;;;5087944;28;20499;-77
2023/05/16 11:38:31;;;;;;;16.63;10.27;;;25.40;1.00;;;;;;5086483;28;20040;-75
2023/05/16 11:41:04;;;;;;;15.07;8.48;;;25.30;1.00;;;;;;5087712;28;20062;-75
2023/05/16 11:43:38;;;;;;;17.65;9.07;;;25.20;6.50;;;;;;5087718;28;20104;-75
2023/05/16 11:46:06;;;;;;;15.30;9.07;;;25.00;1.00;;;;;;5086489;28;20070;-74
2023/05/16 11:48:35;;;;;;;18.42;9.68;;;24.50;1.00;;;;;;5088467;28;20555;-76
2023/05/16 11:51:02;;;;;;;16.80;8.85;;;24.10;97.70;;;;;;5092202;28;20044;-74
2023/05/16 11:53:30;;;;;;;17.55;9.50;;;24.00;99.90;;;;;;5091255;28;20109;-76
2023/05/16 11:56:00;;;;;;;17.75;9.38;;;23.70;99.90;;;;;;5092291;28;20118;-75
2023/05/16 11:58:29;;;;;;;15.02;9.40;;;23.40;1.00;;;;;;5090222;28;20042;-76
2023/05/16 12:00:57;;;;;;;22.90;9.57;;;23.40;1.00;;;;;;5092055;28;20506;-75
2023/05/16 12:03:24;;;;;;;22.85;12.68;;;23.30;1.00;;;;;;5091230;28;20056;-74
2023/05/16 12:05:53;;;;;;;17.48;9.93;;;23.30;99.50;;;;;;5091243;28;20048;-76
2023/05/16 12:08:23;;;;;;;16.38;9.52;;;23.50;1.00;;;;;;5073380;28;20051;-83
2023/05/16 12:10:52;;;;;;;17.63;9.40;;;23.40;99.90;;;;;;5092365;28;20918;-76
2023/05/16 12:13:22;;;;;;;15.60;9.82;;;23.40;99.90;;;;;;5089927;28;20052;-76
2023/05/16 12:15:52;;;;;;;14.75;9.52;;;23.40;99.90;;;;;;5090710;28;20048;-76
2023/05/16 12:18:21;;;;;;;14.82;8.70;;;23.60;1.00;;;;;;5085829;28;20036;-76
2023/05/16 12:20:48;;;;;;;14.40;9.32;;;23.70;99.90;;;;;;5086961;28;20040;-76
2023/05/16 12:23:17;;;;;;;12.23;8.20;;;23.60;85.60;;;;;;5089770;28;20055;-77
2023/05/16 12:25:48;;;;;;;14.90;9.48;;;23.60;1.00;;;;;;5090603;28;20036;-77
2023/05/16 12:28:15;;;;;;;17.58;8.93;;;23.70;1.00;;;;;;5089593;28;20131;-76
2023/05/16 12:30:46;;;;;;;11.90;8.25;;;23.70;1.00;;;;;;5090454;28;20044;-79
2023/05/16 12:33:16;;;;;;;17.90;9.40;;;23.70;99.90;;;;;;5089733;28;20047;-77
2023/05/16 12:35:46;;;;;;;15.95;8.95;;;23.60;1.00;;;;;;5084524;28;20043;-79
2023/05/16 12:38:15;;;;;;;19.25;10.13;;;23.60;1.00;;;;;;5090720;28;20036;-74
2023/05/16 12:40:44;;;;;;;17.38;9.85;;;23.60;99.90;;;;;;5091740;28;20475;-86
2023/05/16 12:43:15;;;;;;;18.63;8.68;;;23.60;1.00;;;;;;5089342;28;20154;-80
2023/05/16 12:45:50;;;;;;;14.43;9.30;;;23.60;1.00;;;;;;5097402;28;20476;-80